sensor_id;sensor_type;location;lat;lon;timestamp;P1;durP1;ratioP1;P2;durP2;ratioP2
62256;SDS011;48240;52.962;5.790;2023-06-19T03:51:52;5.43;;;4.55;;
62256;SDS011;48240;52.962;5.790;2023-06-19T03:54:19;9.30;;;4.55;;
62256;SDS011;48240;52.962;5.790;2023-06-19T03:56:45;4.68;;;4.20;;
62256;SDS011;48240;52.962;5.790;2023-06-19T03:59:11;7.05;;;4.07;;
62256;SDS011;48240;52.962;5.790;2023-06-19T04:01:37;4.88;;;4.07;;
62256;SDS011;48240;52.962;5.790;2023-06-19T04:04:04;4.38;;;3.97;;
62256;SDS011;48240;52.962;5.790;2023-06-19T04:06:30;4.95;;;3.67;;
62256;SDS011;48240;52.962;5.790;2023-06-19T04:08:56;4.72;;;3.90;;
62256;SDS011;48240;52.962;5.790;2023-06-19T04:11:22;4.28;;;3.88;;
62256;SDS011;48240;52.962;5.790;2023-06-19T04:13:48;5.18;;;4.35;;
62256;SDS011;48240;52.962;5.790;2023-06-19T04:16:14;6.40;;;3.78;;
62256;SDS011;48240;52.962;5.790;2023-06-19T04:18:40;3.92;;;3.55;;
62256;SDS011;48240;52.962;5.790;2023-06-19T04:21:06;8.00;;;4.07;;
62256;SDS011;48240;52.962;5.790;2023-06-19T04:23:32;4.85;;;3.55;;
62256;SDS011;48240;52.962;5.790;2023-06-19T04:25:58;6.45;;;3.53;;
62256;SDS011;48240;52.962;5.790;2023-06-19T04:28:24;4.97;;;4.13;;
62256;SDS011;48240;52.962;5.790;2023-06-19T04:30:51;6.90;;;4.22;;
62256;SDS011;48240;52.962;5.790;2023-06-19T04:33:25;4.15;;;3.70;;
62256;SDS011;48240;52.962;5.790;2023-06-19T04:35:51;3.90;;;3.50;;
62256;SDS011;48240;52.962;5.790;2023-06-19T04:38:17;4.97;;;3.72;;
62256;SDS011;48240;52.962;5.790;2023-06-19T04:40:43;4.57;;;3.95;;
62256;SDS011;48240;52.962;5.790;2023-06-19T04:43:09;5.47;;;3.95;;
62256;SDS011;48240;52.962;5.790;2023-06-19T04:45:35;4.18;;;3.70;;
62256;SDS011;48240;52.962;5.790;2023-06-19T04:48:01;4.13;;;3.72;;
62256;SDS011;48240;52.962;5.790;2023-06-19T04:50:28;4.80;;;3.97;;
62256;SDS011;48240;52.962;5.790;2023-06-19T04:52:54;4.20;;;3.63;;
62256;SDS011;48240;52.962;5.790;2023-06-19T04:55:20;5.13;;;4.03;;
62256;SDS011;48240;52.962;5.790;2023-06-19T04:57:46;4.20;;;3.58;;
62256;SDS011;48240;52.962;5.790;2023-06-19T05:00:13;4.63;;;3.83;;
62256;SDS011;48240;52.962;5.790;2023-06-19T05:02:39;5.30;;;3.53;;
62256;SDS011;48240;52.962;5.790;2023-06-19T05:05:08;4.45;;;3.65;;
62256;SDS011;48240;52.962;5.790;2023-06-19T05:07:34;3.90;;;3.50;;
62256;SDS011;48240;52.962;5.790;2023-06-19T05:10:00;5.72;;;4.07;;
62256;SDS011;48240;52.962;5.790;2023-06-19T05:12:27;5.80;;;3.83;;
62256;SDS011;48240;52.962;5.790;2023-06-19T05:14:53;4.18;;;3.70;;
62256;SDS011;48240;52.962;5.790;2023-06-19T05:17:19;4.68;;;3.75;;
62256;SDS011;48240;52.962;5.790;2023-06-19T05:19:45;5.90;;;4.13;;
62256;SDS011;48240;52.962;5.790;2023-06-19T05:22:11;7.30;;;4.38;;
62256;SDS011;48240;52.962;5.790;2023-06-19T05:24:38;7.38;;;5.10;;
62256;SDS011;48240;52.962;5.790;2023-06-19T05:27:04;6.38;;;4.53;;
62256;SDS011;48240;52.962;5.790;2023-06-19T05:29:31;6.82;;;5.43;;
62256;SDS011;48240;52.962;5.790;2023-06-19T05:31:57;17.98;;;12.43;;
62256;SDS011;48240;52.962;5.790;2023-06-19T05:34:23;24.02;;;14.50;;
62256;SDS011;48240;52.962;5.790;2023-06-19T05:36:49;21.13;;;15.82;;
62256;SDS011;48240;52.962;5.790;2023-06-19T05:39:15;22.42;;;17.30;;
62256;SDS011;48240;52.962;5.790;2023-06-19T05:41:44;23.90;;;17.67;;
62256;SDS011;48240;52.962;5.790;2023-06-19T05:44:11;22.50;;;18.90;;
62256;SDS011;48240;52.962;5.790;2023-06-19T05:49:07;23.08;;;18.17;;
62256;SDS011;48240;52.962;5.790;2023-06-19T05:51:33;22.33;;;16.98;;
62256;SDS011;48240;52.962;5.790;2023-06-19T05:53:59;23.63;;;16.85;;
62256;SDS011;48240;52.962;5.790;2023-06-19T05:56:29;21.58;;;16.20;;
62256;SDS011;48240;52.962;5.790;2023-06-19T05:58:55;25.13;;;17.02;;
62256;SDS011;48240;52.962;5.790;2023-06-19T06:01:21;26.13;;;15.68;;
62256;SDS011;48240;52.962;5.790;2023-06-19T06:03:47;26.17;;;16.40;;
62256;SDS011;48240;52.962;5.790;2023-06-19T06:06:13;30.33;;;17.33;;
62256;SDS011;48240;52.962;5.790;2023-06-19T06:08:39;27.08;;;17.20;;
62256;SDS011;48240;52.962;5.790;2023-06-19T06:11:05;26.50;;;17.23;;
62256;SDS011;48240;52.962;5.790;2023-06-19T06:13:31;31.75;;;18.25;;
62256;SDS011;48240;52.962;5.790;2023-06-19T06:15:58;34.33;;;19.67;;
62256;SDS011;48240;52.962;5.790;2023-06-19T06:18:24;32.97;;;20.55;;
62256;SDS011;48240;52.962;5.790;2023-06-19T06:20:50;35.40;;;21.38;;
62256;SDS011;48240;52.962;5.790;2023-06-19T06:23:16;32.78;;;20.90;;
62256;SDS011;48240;52.962;5.790;2023-06-19T06:25:42;35.13;;;22.13;;
62256;SDS011;48240;52.962;5.790;2023-06-19T06:28:10;34.55;;;20.30;;
62256;SDS011;48240;52.962;5.790;2023-06-19T06:30:36;35.63;;;21.90;;
62256;SDS011;48240;52.962;5.790;2023-06-19T06:33:04;37.78;;;21.75;;
62256;SDS011;48240;52.962;5.790;2023-06-19T06:35:30;32.30;;;19.65;;
62256;SDS011;48240;52.962;5.790;2023-06-19T06:37:56;31.75;;;19.05;;
62256;SDS011;48240;52.962;5.790;2023-06-19T06:40:22;29.80;;;18.83;;
62256;SDS011;48240;52.962;5.790;2023-06-19T06:42:48;34.15;;;19.10;;
62256;SDS011;48240;52.962;5.790;2023-06-19T06:45:14;32.65;;;20.42;;
62256;SDS011;48240;52.962;5.790;2023-06-19T06:47:40;34.47;;;20.75;;
62256;SDS011;48240;52.962;5.790;2023-06-19T06:50:07;33.97;;;20.52;;
62256;SDS011;48240;52.962;5.790;2023-06-19T06:52:33;34.47;;;20.27;;
62256;SDS011;48240;52.962;5.790;2023-06-19T06:54:59;35.65;;;20.05;;
62256;SDS011;48240;52.962;5.790;2023-06-19T06:57:25;31.85;;;19.55;;
62256;SDS011;48240;52.962;5.790;2023-06-19T06:59:51;31.83;;;18.63;;
62256;SDS011;48240;52.962;5.790;2023-06-19T07:02:17;29.23;;;17.10;;
62256;SDS011;48240;52.962;5.790;2023-06-19T07:04:43;29.55;;;17.33;;
62256;SDS011;48240;52.962;5.790;2023-06-19T07:07:10;28.52;;;17.00;;
62256;SDS011;48240;52.962;5.790;2023-06-19T07:09:36;26.17;;;16.20;;
62256;SDS011;48240;52.962;5.790;2023-06-19T07:12:02;22.40;;;14.68;;
62256;SDS011;48240;52.962;5.790;2023-06-19T07:14:30;25.02;;;14.70;;
62256;SDS011;48240;52.962;5.790;2023-06-19T07:16:56;23.40;;;14.05;;
62256;SDS011;48240;52.962;5.790;2023-06-19T07:19:22;22.42;;;13.30;;
62256;SDS011;48240;52.962;5.790;2023-06-19T07:21:51;24.60;;;12.68;;
62256;SDS011;48240;52.962;5.790;2023-06-19T07:24:18;14.40;;;9.68;;
62256;SDS011;48240;52.962;5.790;2023-06-19T07:26:45;14.02;;;9.40;;
62256;SDS011;48240;52.962;5.790;2023-06-19T07:29:12;12.40;;;8.30;;
62256;SDS011;48240;52.962;5.790;2023-06-19T07:31:38;12.45;;;8.18;;
62256;SDS011;48240;52.962;5.790;2023-06-19T07:34:04;10.52;;;7.45;;
62256;SDS011;48240;52.962;5.790;2023-06-19T07:36:30;12.07;;;7.63;;
62256;SDS011;48240;52.962;5.790;2023-06-19T07:38:56;11.70;;;7.55;;
62256;SDS011;48240;52.962;5.790;2023-06-19T07:41:22;9.80;;;7.15;;
62256;SDS011;48240;52.962;5.790;2023-06-19T07:43:48;11.15;;;7.30;;
62256;SDS011;48240;52.962;5.790;2023-06-19T07:46:14;8.65;;;6.68;;
62256;SDS011;48240;52.962;5.790;2023-06-19T07:48:40;11.30;;;7.05;;
62256;SDS011;48240;52.962;5.790;2023-06-19T07:51:07;10.65;;;7.13;;
62256;SDS011;48240;52.962;5.790;2023-06-19T07:53:33;9.02;;;6.70;;
62256;SDS011;48240;52.962;5.790;2023-06-19T07:55:59;7.85;;;6.15;;
62256;SDS011;48240;52.962;5.790;2023-06-19T07:58:25;13.30;;;6.28;;
62256;SDS011;48240;52.962;5.790;2023-06-19T08:00:51;8.68;;;6.13;;
62256;SDS011;48240;52.962;5.790;2023-06-19T08:03:17;9.32;;;5.43;;
62256;SDS011;48240;52.962;5.790;2023-06-19T08:05:43;10.95;;;5.63;;
62256;SDS011;48240;52.962;5.790;2023-06-19T08:08:11;8.07;;;5.78;;
62256;SDS011;48240;52.962;5.790;2023-06-19T08:10:37;12.40;;;5.78;;
62256;SDS011;48240;52.962;5.790;2023-06-19T08:13:03;9.75;;;5.68;;
62256;SDS011;48240;52.962;5.790;2023-06-19T08:15:29;11.85;;;5.40;;
62256;SDS011;48240;52.962;5.790;2023-06-19T08:17:55;13.02;;;5.38;;
62256;SDS011;48240;52.962;5.790;2023-06-19T08:20:21;9.95;;;5.72;;
62256;SDS011;48240;52.962;5.790;2023-06-19T08:22:47;7.72;;;5.43;;
62256;SDS011;48240;52.962;5.790;2023-06-19T08:25:13;10.82;;;5.00;;
62256;SDS011;48240;52.962;5.790;2023-06-19T08:27:39;7.68;;;5.15;;
62256;SDS011;48240;52.962;5.790;2023-06-19T08:30:06;8.88;;;4.97;;
62256;SDS011;48240;52.962;5.790;2023-06-19T08:32:32;7.90;;;5.25;;
62256;SDS011;48240;52.962;5.790;2023-06-19T08:34:59;6.75;;;5.00;;
62256;SDS011;48240;52.962;5.790;2023-06-19T08:37:25;8.40;;;5.13;;
62256;SDS011;48240;52.962;5.790;2023-06-19T08:39:52;9.93;;;5.32;;
62256;SDS011;48240;52.962;5.790;2023-06-19T08:42:18;6.75;;;4.63;;
62256;SDS011;48240;52.962;5.790;2023-06-19T08:44:44;8.60;;;5.35;;
62256;SDS011;48240;52.962;5.790;2023-06-19T08:47:10;9.48;;;5.63;;
62256;SDS011;48240;52.962;5.790;2023-06-19T08:49:36;7.75;;;5.72;;
62256;SDS011;48240;52.962;5.790;2023-06-19T08:52:02;9.60;;;5.20;;
62256;SDS011;48240;52.962;5.790;2023-06-19T08:54:29;9.07;;;5.68;;
62256;SDS011;48240;52.962;5.790;2023-06-19T08:56:55;11.68;;;5.25;;
62256;SDS011;48240;52.962;5.790;2023-06-19T08:59:21;8.57;;;5.85;;
62256;SDS011;48240;52.962;5.790;2023-06-19T09:01:51;12.50;;;6.45;;
62256;SDS011;48240;52.962;5.790;2023-06-19T09:04:18;8.57;;;6.23;;
62256;SDS011;48240;52.962;5.790;2023-06-19T09:06:46;10.55;;;5.68;;
62256;SDS011;48240;52.962;5.790;2023-06-19T09:09:13;10.82;;;6.10;;
62256;SDS011;48240;52.962;5.790;2023-06-19T09:11:40;8.98;;;5.30;;
62256;SDS011;48240;52.962;5.790;2023-06-19T09:14:09;9.77;;;5.70;;
62256;SDS011;48240;52.962;5.790;2023-06-19T09:16:39;9.20;;;6.20;;
62256;SDS011;48240;52.962;5.790;2023-06-19T09:19:05;12.88;;;6.22;;
62256;SDS011;48240;52.962;5.790;2023-06-19T09:21:32;10.35;;;6.10;;
62256;SDS011;48240;52.962;5.790;2023-06-19T09:24:04;8.48;;;6.10;;
62256;SDS011;48240;52.962;5.790;2023-06-19T09:26:31;9.15;;;5.85;;
62256;SDS011;48240;52.962;5.790;2023-06-19T09:28:57;10.85;;;6.25;;
62256;SDS011;48240;52.962;5.790;2023-06-19T09:31:33;10.18;;;6.13;;
62256;SDS011;48240;52.962;5.790;2023-06-19T09:33:59;15.82;;;6.30;;
62256;SDS011;48240;52.962;5.790;2023-06-19T09:36:25;13.32;;;5.95;;
62256;SDS011;48240;52.962;5.790;2023-06-19T09:38:52;10.02;;;6.25;;
62256;SDS011;48240;52.962;5.790;2023-06-19T09:41:20;10.15;;;6.43;;
62256;SDS011;48240;52.962;5.790;2023-06-19T09:43:47;8.65;;;6.63;;
62256;SDS011;48240;52.962;5.790;2023-06-19T09:46:14;10.05;;;6.03;;
62256;SDS011;48240;52.962;5.790;2023-06-19T09:48:44;13.00;;;6.18;;
62256;SDS011;48240;52.962;5.790;2023-06-19T09:53:37;10.98;;;6.65;;
62256;SDS011;48240;52.962;5.790;2023-06-19T09:56:03;12.38;;;6.07;;
62256;SDS011;48240;52.962;5.790;2023-06-19T09:58:29;7.93;;;5.30;;
62256;SDS011;48240;52.962;5.790;2023-06-19T10:00:56;11.00;;;6.70;;
62256;SDS011;48240;52.962;5.790;2023-06-19T10:03:29;7.47;;;5.70;;
62256;SDS011;48240;52.962;5.790;2023-06-19T10:05:59;8.45;;;5.82;;
62256;SDS011;48240;52.962;5.790;2023-06-19T10:08:29;12.77;;;6.25;;
62256;SDS011;48240;52.962;5.790;2023-06-19T10:10:55;10.95;;;6.45;;
62256;SDS011;48240;52.962;5.790;2023-06-19T10:13:30;9.27;;;6.63;;
62256;SDS011;48240;52.962;5.790;2023-06-19T10:15:56;8.68;;;6.38;;
62256;SDS011;48240;52.962;5.790;2023-06-19T10:18:22;11.32;;;6.40;;
62256;SDS011;48240;52.962;5.790;2023-06-19T10:20:50;12.32;;;6.85;;
62256;SDS011;48240;52.962;5.790;2023-06-19T10:23:17;8.20;;;6.10;;
62256;SDS011;48240;52.962;5.790;2023-06-19T10:25:46;9.52;;;5.90;;
62256;SDS011;48240;52.962;5.790;2023-06-19T10:28:19;9.85;;;5.80;;
62256;SDS011;48240;52.962;5.790;2023-06-19T10:31:21;10.75;;;5.80;;
62256;SDS011;48240;52.962;5.790;2023-06-19T10:33:43;11.52;;;6.90;;
62256;SDS011;48240;52.962;5.790;2023-06-19T10:36:16;7.18;;;5.47;;
62256;SDS011;48240;52.962;5.790;2023-06-19T10:38:42;8.82;;;6.35;;
62256;SDS011;48240;52.962;5.790;2023-06-19T10:41:22;10.60;;;7.55;;
62256;SDS011;48240;52.962;5.790;2023-06-19T10:43:57;11.65;;;7.07;;
62256;SDS011;48240;52.962;5.790;2023-06-19T10:46:24;11.57;;;7.40;;
62256;SDS011;48240;52.962;5.790;2023-06-19T10:48:50;12.70;;;8.45;;
62256;SDS011;48240;52.962;5.790;2023-06-19T10:51:19;11.40;;;7.50;;
62256;SDS011;48240;52.962;5.790;2023-06-19T10:53:46;11.75;;;7.65;;
62256;SDS011;48240;52.962;5.790;2023-06-19T10:56:12;9.95;;;7.00;;
62256;SDS011;48240;52.962;5.790;2023-06-19T10:58:38;16.58;;;7.72;;
62256;SDS011;48240;52.962;5.790;2023-06-19T11:01:04;14.55;;;7.63;;
62256;SDS011;48240;52.962;5.790;2023-06-19T11:03:31;10.60;;;7.95;;
62256;SDS011;48240;52.962;5.790;2023-06-19T11:05:57;10.93;;;7.97;;
62256;SDS011;48240;52.962;5.790;2023-06-19T11:08:23;12.18;;;7.63;;
62256;SDS011;48240;52.962;5.790;2023-06-19T11:10:50;11.45;;;6.97;;
62256;SDS011;48240;52.962;5.790;2023-06-19T11:13:17;10.75;;;7.43;;
62256;SDS011;48240;52.962;5.790;2023-06-19T11:15:44;12.50;;;7.57;;
62256;SDS011;48240;52.962;5.790;2023-06-19T11:18:10;11.48;;;6.85;;
62256;SDS011;48240;52.962;5.790;2023-06-19T11:20:46;11.52;;;7.90;;
62256;SDS011;48240;52.962;5.790;2023-06-19T11:23:14;9.07;;;6.97;;
62256;SDS011;48240;52.962;5.790;2023-06-19T11:25:41;10.13;;;7.57;;
62256;SDS011;48240;52.962;5.790;2023-06-19T11:28:11;8.35;;;6.72;;
62256;SDS011;48240;52.962;5.790;2023-06-19T11:30:38;12.18;;;6.95;;
62256;SDS011;48240;52.962;5.790;2023-06-19T11:33:14;9.43;;;6.53;;
62256;SDS011;48240;52.962;5.790;2023-06-19T11:35:40;11.80;;;7.03;;
62256;SDS011;48240;52.962;5.790;2023-06-19T11:38:06;9.05;;;7.15;;
62256;SDS011;48240;52.962;5.790;2023-06-19T11:40:40;10.38;;;7.00;;
62256;SDS011;48240;52.962;5.790;2023-06-19T11:43:06;11.13;;;7.38;;
62256;SDS011;48240;52.962;5.790;2023-06-19T11:45:43;10.85;;;6.90;;
62256;SDS011;48240;52.962;5.790;2023-06-19T11:48:10;8.98;;;6.63;;
62256;SDS011;48240;52.962;5.790;2023-06-19T11:50:37;9.15;;;6.60;;
62256;SDS011;48240;52.962;5.790;2023-06-19T11:53:04;9.55;;;6.60;;
62256;SDS011;48240;52.962;5.790;2023-06-19T11:55:30;8.27;;;6.35;;
62256;SDS011;48240;52.962;5.790;2023-06-19T11:57:56;7.82;;;6.15;;
62256;SDS011;48240;52.962;5.790;2023-06-19T12:00:22;8.50;;;6.30;;
62256;SDS011;48240;52.962;5.790;2023-06-19T12:02:48;7.85;;;6.05;;
62256;SDS011;48240;52.962;5.790;2023-06-19T12:05:14;7.97;;;5.90;;
62256;SDS011;48240;52.962;5.790;2023-06-19T12:07:40;11.90;;;6.68;;
62256;SDS011;48240;52.962;5.790;2023-06-19T12:10:06;13.40;;;6.53;;
62256;SDS011;48240;52.962;5.790;2023-06-19T12:12:35;9.38;;;6.07;;
62256;SDS011;48240;52.962;5.790;2023-06-19T12:15:04;8.18;;;6.03;;
62256;SDS011;48240;52.962;5.790;2023-06-19T12:17:30;10.63;;;6.32;;
62256;SDS011;48240;52.962;5.790;2023-06-19T12:19:56;7.82;;;6.20;;
62256;SDS011;48240;52.962;5.790;2023-06-19T12:22:22;9.45;;;6.30;;
62256;SDS011;48240;52.962;5.790;2023-06-19T12:24:48;11.98;;;5.93;;
62256;SDS011;48240;52.962;5.790;2023-06-19T12:27:15;8.85;;;5.55;;
62256;SDS011;48240;52.962;5.790;2023-06-19T12:29:41;7.15;;;5.63;;
62256;SDS011;48240;52.962;5.790;2023-06-19T12:32:07;9.65;;;6.03;;
62256;SDS011;48240;52.962;5.790;2023-06-19T12:34:33;9.52;;;5.75;;
62256;SDS011;48240;52.962;5.790;2023-06-19T12:36:59;8.63;;;5.45;;
62256;SDS011;48240;52.962;5.790;2023-06-19T12:39:25;8.82;;;5.57;;
62256;SDS011;48240;52.962;5.790;2023-06-19T12:41:52;11.30;;;6.43;;
62256;SDS011;48240;52.962;5.790;2023-06-19T12:44:18;8.77;;;5.88;;
62256;SDS011;48240;52.962;5.790;2023-06-19T12:46:44;7.30;;;5.85;;
62256;SDS011;48240;52.962;5.790;2023-06-19T12:49:10;8.75;;;5.60;;
62256;SDS011;48240;52.962;5.790;2023-06-19T12:51:36;7.13;;;5.53;;
62256;SDS011;48240;52.962;5.790;2023-06-19T12:54:02;7.00;;;5.50;;
62256;SDS011;48240;52.962;5.790;2023-06-19T12:56:29;6.63;;;5.20;;
62256;SDS011;48240;52.962;5.790;2023-06-19T12:58:55;8.05;;;5.78;;
62256;SDS011;48240;52.962;5.790;2023-06-19T13:01:21;7.03;;;5.75;;
62256;SDS011;48240;52.962;5.790;2023-06-19T13:03:47;6.63;;;5.20;;
62256;SDS011;48240;52.962;5.790;2023-06-19T13:06:13;7.82;;;5.45;;
62256;SDS011;48240;52.962;5.790;2023-06-19T13:08:39;9.93;;;5.22;;
62256;SDS011;48240;52.962;5.790;2023-06-19T13:11:05;8.82;;;6.25;;
62256;SDS011;48240;52.962;5.790;2023-06-19T13:13:31;8.25;;;5.88;;
62256;SDS011;48240;52.962;5.790;2023-06-19T13:15:57;7.15;;;4.88;;
62256;SDS011;48240;52.962;5.790;2023-06-19T13:18:23;6.80;;;5.32;;
62256;SDS011;48240;52.962;5.790;2023-06-19T13:20:49;8.55;;;5.60;;
62256;SDS011;48240;52.962;5.790;2023-06-19T13:23:15;6.60;;;5.47;;
62256;SDS011;48240;52.962;5.790;2023-06-19T13:25:41;8.93;;;4.93;;
62256;SDS011;48240;52.962;5.790;2023-06-19T13:28:07;7.85;;;5.30;;
62256;SDS011;48240;52.962;5.790;2023-06-19T13:30:33;6.78;;;4.78;;
62256;SDS011;48240;52.962;5.790;2023-06-19T13:33:00;7.03;;;5.20;;
62256;SDS011;48240;52.962;5.790;2023-06-19T13:35:26;5.95;;;4.72;;
62256;SDS011;48240;52.962;5.790;2023-06-19T13:37:52;11.63;;;5.50;;
62256;SDS011;48240;52.962;5.790;2023-06-19T13:40:18;10.93;;;5.22;;
62256;SDS011;48240;52.962;5.790;2023-06-19T13:42:44;6.78;;;4.60;;
62256;SDS011;48240;52.962;5.790;2023-06-19T13:45:10;8.43;;;5.30;;
62256;SDS011;48240;52.962;5.790;2023-06-19T13:47:36;6.72;;;4.65;;
62256;SDS011;48240;52.962;5.790;2023-06-19T13:50:02;8.43;;;5.15;;
62256;SDS011;48240;52.962;5.790;2023-06-19T13:52:29;8.73;;;5.53;;
62256;SDS011;48240;52.962;5.790;2023-06-19T13:54:55;8.70;;;5.25;;
62256;SDS011;48240;52.962;5.790;2023-06-19T13:57:21;7.43;;;5.30;;
62256;SDS011;48240;52.962;5.790;2023-06-19T13:59:47;9.15;;;4.80;;
62256;SDS011;48240;52.962;5.790;2023-06-19T14:02:14;10.25;;;5.38;;
62256;SDS011;48240;52.962;5.790;2023-06-19T14:04:40;6.20;;;5.35;;
62256;SDS011;48240;52.962;5.790;2023-06-19T14:07:07;6.05;;;4.85;;
62256;SDS011;48240;52.962;5.790;2023-06-19T14:09:33;8.25;;;4.82;;
62256;SDS011;48240;52.962;5.790;2023-06-19T14:11:59;7.43;;;5.13;;
62256;SDS011;48240;52.962;5.790;2023-06-19T14:14:25;7.93;;;4.60;;
62256;SDS011;48240;52.962;5.790;2023-06-19T14:16:51;7.88;;;4.78;;
62256;SDS011;48240;52.962;5.790;2023-06-19T14:19:17;11.15;;;5.40;;
62256;SDS011;48240;52.962;5.790;2023-06-19T14:21:44;10.23;;;4.90;;
62256;SDS011;48240;52.962;5.790;2023-06-19T14:24:10;9.35;;;4.72;;
62256;SDS011;48240;52.962;5.790;2023-06-19T14:26:36;6.85;;;4.70;;
62256;SDS011;48240;52.962;5.790;2023-06-19T14:29:02;6.13;;;4.68;;
62256;SDS011;48240;52.962;5.790;2023-06-19T14:31:28;6.97;;;4.90;;
62256;SDS011;48240;52.962;5.790;2023-06-19T14:33:54;7.32;;;4.63;;
62256;SDS011;48240;52.962;5.790;2023-06-19T14:36:21;6.00;;;4.85;;
62256;SDS011;48240;52.962;5.790;2023-06-19T14:38:47;6.72;;;5.05;;
62256;SDS011;48240;52.962;5.790;2023-06-19T14:41:13;7.32;;;4.97;;
62256;SDS011;48240;52.962;5.790;2023-06-19T14:43:39;10.48;;;4.88;;
62256;SDS011;48240;52.962;5.790;2023-06-19T14:46:05;6.65;;;5.10;;
62256;SDS011;48240;52.962;5.790;2023-06-19T14:48:31;12.45;;;5.57;;
62256;SDS011;48240;52.962;5.790;2023-06-19T14:50:57;57.22;;;12.27;;
62256;SDS011;48240;52.962;5.790;2023-06-19T14:53:23;37.90;;;9.70;;
62256;SDS011;48240;52.962;5.790;2023-06-19T14:55:49;47.60;;;12.68;;
62256;SDS011;48240;52.962;5.790;2023-06-19T14:58:16;57.67;;;12.38;;
62256;SDS011;48240;52.962;5.790;2023-06-19T15:00:42;49.25;;;12.93;;
62256;SDS011;48240;52.962;5.790;2023-06-19T15:03:08;39.08;;;10.68;;
62256;SDS011;48240;52.962;5.790;2023-06-19T15:05:34;34.75;;;10.70;;
62256;SDS011;48240;52.962;5.790;2023-06-19T15:08:00;27.02;;;8.55;;
62256;SDS011;48240;52.962;5.790;2023-06-19T15:10:27;25.70;;;8.63;;
62256;SDS011;48240;52.962;5.790;2023-06-19T15:12:53;22.80;;;8.40;;
62256;SDS011;48240;52.962;5.790;2023-06-19T15:15:19;20.55;;;7.40;;
62256;SDS011;48240;52.962;5.790;2023-06-19T15:17:45;19.88;;;8.05;;
62256;SDS011;48240;52.962;5.790;2023-06-19T15:20:12;23.35;;;7.15;;
62256;SDS011;48240;52.962;5.790;2023-06-19T15:22:38;20.02;;;7.47;;
62256;SDS011;48240;52.962;5.790;2023-06-19T15:25:04;19.13;;;7.57;;
62256;SDS011;48240;52.962;5.790;2023-06-19T15:27:31;21.27;;;7.43;;
62256;SDS011;48240;52.962;5.790;2023-06-19T15:29:57;20.90;;;7.45;;
62256;SDS011;48240;52.962;5.790;2023-06-19T15:32:23;18.52;;;7.43;;
62256;SDS011;48240;52.962;5.790;2023-06-19T15:34:49;16.63;;;6.80;;
62256;SDS011;48240;52.962;5.790;2023-06-19T15:37:15;17.52;;;7.18;;
62256;SDS011;48240;52.962;5.790;2023-06-19T15:39:41;19.83;;;7.47;;
62256;SDS011;48240;52.962;5.790;2023-06-19T15:42:08;13.82;;;6.55;;
62256;SDS011;48240;52.962;5.790;2023-06-19T15:44:34;15.40;;;7.05;;
62256;SDS011;48240;52.962;5.790;2023-06-19T15:47:00;14.63;;;6.60;;
62256;SDS011;48240;52.962;5.790;2023-06-19T15:49:26;14.93;;;6.60;;
62256;SDS011;48240;52.962;5.790;2023-06-19T15:51:52;16.08;;;6.43;;
62256;SDS011;48240;52.962;5.790;2023-06-19T15:54:18;15.00;;;6.43;;
62256;SDS011;48240;52.962;5.790;2023-06-19T15:56:44;16.90;;;6.22;;
62256;SDS011;48240;52.962;5.790;2023-06-19T15:59:10;12.15;;;5.80;;
62256;SDS011;48240;52.962;5.790;2023-06-19T16:01:36;13.90;;;6.75;;
62256;SDS011;48240;52.962;5.790;2023-06-19T16:04:02;13.48;;;6.07;;
62256;SDS011;48240;52.962;5.790;2023-06-19T16:06:28;14.27;;;6.20;;
62256;SDS011;48240;52.962;5.790;2023-06-19T16:08:55;17.02;;;6.57;;
62256;SDS011;48240;52.962;5.790;2023-06-19T16:11:22;13.10;;;6.10;;
62256;SDS011;48240;52.962;5.790;2023-06-19T16:13:48;12.88;;;6.07;;
62256;SDS011;48240;52.962;5.790;2023-06-19T16:16:14;13.35;;;5.80;;
62256;SDS011;48240;52.962;5.790;2023-06-19T16:18:41;10.93;;;5.80;;
62256;SDS011;48240;52.962;5.790;2023-06-19T16:21:07;13.18;;;6.10;;
62256;SDS011;48240;52.962;5.790;2023-06-19T16:23:33;12.43;;;6.15;;
62256;SDS011;48240;52.962;5.790;2023-06-19T16:26:01;11.35;;;5.80;;
62256;SDS011;48240;52.962;5.790;2023-06-19T16:28:29;11.85;;;6.28;;
62256;SDS011;48240;52.962;5.790;2023-06-19T16:30:55;10.95;;;5.88;;
62256;SDS011;48240;52.962;5.790;2023-06-19T16:33:21;16.63;;;6.20;;
62256;SDS011;48240;52.962;5.790;2023-06-19T16:35:47;12.63;;;6.03;;
62256;SDS011;48240;52.962;5.790;2023-06-19T16:38:13;12.88;;;5.15;;
62256;SDS011;48240;52.962;5.790;2023-06-19T16:40:39;6.88;;;4.65;;
62256;SDS011;48240;52.962;5.790;2023-06-19T16:43:05;5.82;;;4.35;;
62256;SDS011;48240;52.962;5.790;2023-06-19T16:45:31;7.50;;;4.63;;
62256;SDS011;48240;52.962;5.790;2023-06-19T16:47:57;7.72;;;4.95;;
62256;SDS011;48240;52.962;5.790;2023-06-19T16:50:24;6.28;;;4.53;;
62256;SDS011;48240;52.962;5.790;2023-06-19T16:52:51;7.70;;;4.43;;
62256;SDS011;48240;52.962;5.790;2023-06-19T16:55:17;7.15;;;5.20;;
62256;SDS011;48240;52.962;5.790;2023-06-19T16:57:47;7.15;;;4.68;;
62256;SDS011;48240;52.962;5.790;2023-06-19T17:00:13;7.97;;;4.47;;
62256;SDS011;48240;52.962;5.790;2023-06-19T17:02:39;8.82;;;5.00;;
62256;SDS011;48240;52.962;5.790;2023-06-19T17:05:06;6.65;;;4.60;;
62256;SDS011;48240;52.962;5.790;2023-06-19T17:07:32;10.90;;;5.13;;
62256;SDS011;48240;52.962;5.790;2023-06-19T17:09:58;7.13;;;4.78;;
62256;SDS011;48240;52.962;5.790;2023-06-19T17:12:24;6.68;;;5.10;;
62256;SDS011;48240;52.962;5.790;2023-06-19T17:14:50;7.88;;;4.78;;
62256;SDS011;48240;52.962;5.790;2023-06-19T17:17:16;7.13;;;4.85;;
62256;SDS011;48240;52.962;5.790;2023-06-19T17:19:42;11.52;;;4.90;;
62256;SDS011;48240;52.962;5.790;2023-06-19T17:22:08;10.63;;;5.25;;
62256;SDS011;48240;52.962;5.790;2023-06-19T17:24:34;8.13;;;4.75;;
62256;SDS011;48240;52.962;5.790;2023-06-19T17:27:00;6.35;;;4.80;;
62256;SDS011;48240;52.962;5.790;2023-06-19T17:29:26;8.55;;;5.03;;
62256;SDS011;48240;52.962;5.790;2023-06-19T17:31:53;6.63;;;4.50;;
62256;SDS011;48240;52.962;5.790;2023-06-19T17:34:19;6.95;;;5.10;;
62256;SDS011;48240;52.962;5.790;2023-06-19T17:36:45;7.90;;;4.97;;
62256;SDS011;48240;52.962;5.790;2023-06-19T17:39:11;8.40;;;4.80;;
62256;SDS011;48240;52.962;5.790;2023-06-19T17:41:37;9.70;;;4.85;;
62256;SDS011;48240;52.962;5.790;2023-06-19T17:44:04;7.72;;;5.00;;
62256;SDS011;48240;52.962;5.790;2023-06-19T17:46:30;7.43;;;4.43;;
62256;SDS011;48240;52.962;5.790;2023-06-19T17:48:56;8.55;;;5.00;;
62256;SDS011;48240;52.962;5.790;2023-06-19T17:51:22;5.95;;;4.22;;
62256;SDS011;48240;52.962;5.790;2023-06-19T17:53:50;9.55;;;4.90;;
62256;SDS011;48240;52.962;5.790;2023-06-19T17:56:16;8.05;;;4.88;;
62256;SDS011;48240;52.962;5.790;2023-06-19T17:58:43;7.57;;;4.97;;
62256;SDS011;48240;52.962;5.790;2023-06-19T18:01:09;12.13;;;4.53;;
62256;SDS011;48240;52.962;5.790;2023-06-19T18:03:35;10.27;;;5.05;;
62256;SDS011;48240;52.962;5.790;2023-06-19T18:06:01;7.75;;;5.18;;
62256;SDS011;48240;52.962;5.790;2023-06-19T18:08:27;8.27;;;4.90;;
62256;SDS011;48240;52.962;5.790;2023-06-19T18:10:53;5.65;;;4.35;;
62256;SDS011;48240;52.962;5.790;2023-06-19T18:13:20;8.15;;;4.68;;
62256;SDS011;48240;52.962;5.790;2023-06-19T18:15:47;8.38;;;5.45;;
62256;SDS011;48240;52.962;5.790;2023-06-19T18:18:13;8.32;;;5.07;;
62256;SDS011;48240;52.962;5.790;2023-06-19T18:20:39;8.98;;;5.10;;
62256;SDS011;48240;52.962;5.790;2023-06-19T18:23:06;9.40;;;4.80;;
62256;SDS011;48240;52.962;5.790;2023-06-19T18:25:32;7.78;;;4.22;;
62256;SDS011;48240;52.962;5.790;2023-06-19T18:27:58;7.03;;;4.60;;
62256;SDS011;48240;52.962;5.790;2023-06-19T18:30:26;6.22;;;4.45;;
62256;SDS011;48240;52.962;5.790;2023-06-19T18:32:52;8.13;;;5.80;;